PBD154 URWW-UARR
Flight info
| Callsign | PBD154 |
|---|---|
| Flight time | 1h 1m |
| Altitude | 35000 |
| Route | RODUN1E RODUN R807 UROBO T692 DENUD M161 GUTAN GUTAN5A |
| Aircraft | B738/M-SDE2E3FGHIRWXY/LB1 |
Departure
| Time | 2026-05-07 17:14 |
|---|---|
| Airport | Volgograd International Airport (URWW) |
Arrival
| Time | 2026-05-07 18:16 |
|---|---|
| Airport | Manshuk Mametova International Airport (UARR) |
| Time | Latitude | Longitude | Altitude | Speed | Heading |
|---|---|---|---|---|---|
| 2026-05-07 16:34 | 48.79018 | 44.35277 | 451 ft | 0 kts | 339° |
| 2026-05-07 17:02 | 48.78998 | 44.35291 | 451 ft | 4 kts | 324° |
| 2026-05-07 17:02 | 48.78981 | 44.35318 | 451 ft | 4 kts | 288° |
| 2026-05-07 17:03 | 48.78980 | 44.35349 | 451 ft | 0 kts | 249° |
| 2026-05-07 17:05 | 48.78978 | 44.35343 | 451 ft | 1 kts | 249° |
| 2026-05-07 17:06 | 48.78964 | 44.35297 | 450 ft | 8 kts | 244° |
| 2026-05-07 17:06 | 48.78945 | 44.35215 | 450 ft | 9 kts | 251° |
| 2026-05-07 17:06 | 48.78911 | 44.35129 | 451 ft | 10 kts | 221° |
| 2026-05-07 17:06 | 48.78846 | 44.35120 | 451 ft | 10 kts | 160° |
| 2026-05-07 17:07 | 48.78755 | 44.35166 | 452 ft | 18 kts | 162° |
| 2026-05-07 17:07 | 48.78694 | 44.35195 | 454 ft | 0 kts | 162° |
| 2026-05-07 17:08 | 48.78692 | 44.35197 | 439 ft | 1 kts | 155° |
| 2026-05-07 17:08 | 48.78690 | 44.35198 | 454 ft | 0 kts | 155° |
| 2026-05-07 17:11 | 48.78666 | 44.35212 | 456 ft | 12 kts | 160° |
| 2026-05-07 17:11 | 48.78581 | 44.35244 | 468 ft | 13 kts | 186° |
| 2026-05-07 17:11 | 48.78545 | 44.35194 | 464 ft | 0 kts | 241° |
| 2026-05-07 17:13 | 48.78544 | 44.35191 | 464 ft | 3 kts | 241° |
| 2026-05-07 17:13 | 48.78434 | 44.34837 | 460 ft | 78 kts | 246° |
| 2026-05-07 17:13 | 48.78090 | 44.33760 | 459 ft | 147 kts | 245° |
| 2026-05-07 17:14 | 48.77589 | 44.32152 | 663 ft | 185 kts | 244° |
| 2026-05-07 17:14 | 48.76998 | 44.30412 | 1624 ft | 180 kts | 244° |
| 2026-05-07 17:14 | 48.76460 | 44.28754 | 2654 ft | 178 kts | 248° |
| 2026-05-07 17:14 | 48.75894 | 44.26932 | 2983 ft | 205 kts | 248° |
| 2026-05-07 17:15 | 48.75250 | 44.24864 | 3203 ft | 229 kts | 247° |
| 2026-05-07 17:15 | 48.74625 | 44.22530 | 3417 ft | 252 kts | 263° |
| 2026-05-07 17:15 | 48.74823 | 44.19891 | 3947 ft | 258 kts | 295° |
| 2026-05-07 17:15 | 48.75919 | 44.17768 | 4695 ft | 259 kts | 325° |
| 2026-05-07 17:16 | 48.77570 | 44.16759 | 5481 ft | 259 kts | 354° |
| 2026-05-07 17:16 | 48.79356 | 44.17136 | 6114 ft | 270 kts | 23° |
| 2026-05-07 17:16 | 48.80942 | 44.18619 | 6988 ft | 266 kts | 33° |
| 2026-05-07 17:16 | 48.82451 | 44.20262 | 7749 ft | 269 kts | 34° |
| 2026-05-07 17:17 | 48.83970 | 44.21952 | 8480 ft | 272 kts | 35° |
| 2026-05-07 17:17 | 48.85496 | 44.23649 | 9269 ft | 273 kts | 35° |
| 2026-05-07 17:17 | 48.87035 | 44.25353 | 10006 ft | 275 kts | 35° |
| 2026-05-07 17:17 | 48.88618 | 44.27097 | 10412 ft | 291 kts | 35° |
| 2026-05-07 17:18 | 48.90317 | 44.28960 | 10573 ft | 313 kts | 35° |
| 2026-05-07 17:18 | 48.92145 | 44.30958 | 10738 ft | 333 kts | 35° |
| 2026-05-07 17:18 | 48.94078 | 44.33070 | 10951 ft | 350 kts | 35° |
| 2026-05-07 17:18 | 48.96080 | 44.35256 | 11452 ft | 357 kts | 35° |
| 2026-05-07 17:19 | 48.98104 | 44.37467 | 12138 ft | 359 kts | 35° |
| 2026-05-07 17:19 | 49.00137 | 44.39687 | 12834 ft | 361 kts | 35° |
| 2026-05-07 17:19 | 49.02181 | 44.41921 | 13519 ft | 364 kts | 35° |
| 2026-05-07 17:19 | 49.04248 | 44.44180 | 14169 ft | 367 kts | 35° |
| 2026-05-07 17:20 | 49.06329 | 44.46457 | 14812 ft | 370 kts | 35° |
| 2026-05-07 17:20 | 49.08427 | 44.48755 | 15449 ft | 373 kts | 35° |
| 2026-05-07 17:20 | 49.10513 | 44.51041 | 16068 ft | 376 kts | 35° |
| 2026-05-07 17:20 | 49.12643 | 44.53379 | 16701 ft | 379 kts | 35° |
| 2026-05-07 17:21 | 49.14797 | 44.55744 | 16940 ft | 382 kts | 35° |
| 2026-05-07 17:21 | 49.16954 | 44.58116 | 16948 ft | 382 kts | 35° |
| 2026-05-07 17:21 | 49.19113 | 44.60493 | 16954 ft | 383 kts | 35° |
| 2026-05-07 17:21 | 49.21273 | 44.62874 | 16974 ft | 385 kts | 35° |
| 2026-05-07 17:22 | 49.23462 | 44.65289 | 17395 ft | 390 kts | 35° |
| 2026-05-07 17:22 | 49.25658 | 44.67715 | 18156 ft | 389 kts | 35° |
| 2026-05-07 17:22 | 49.27856 | 44.70145 | 18749 ft | 391 kts | 35° |
| 2026-05-07 17:22 | 49.30068 | 44.72595 | 19263 ft | 394 kts | 35° |
| 2026-05-07 17:23 | 49.32041 | 44.74781 | 19696 ft | 397 kts | 35° |
| 2026-05-07 17:23 | 49.34283 | 44.77268 | 20213 ft | 400 kts | 35° |
| 2026-05-07 17:23 | 49.36547 | 44.79783 | 20720 ft | 403 kts | 35° |
| 2026-05-07 17:23 | 49.38822 | 44.82313 | 21217 ft | 405 kts | 35° |
| 2026-05-07 17:24 | 49.41112 | 44.84862 | 21696 ft | 408 kts | 36° |
| 2026-05-07 17:24 | 49.43418 | 44.87433 | 22167 ft | 411 kts | 36° |
| 2026-05-07 17:24 | 49.45739 | 44.90023 | 22631 ft | 414 kts | 36° |
| 2026-05-07 17:24 | 49.48079 | 44.92638 | 23085 ft | 417 kts | 36° |
| 2026-05-07 17:25 | 49.50430 | 44.95268 | 23522 ft | 419 kts | 36° |
| 2026-05-07 17:25 | 49.52797 | 44.97919 | 23895 ft | 422 kts | 36° |
| 2026-05-07 17:25 | 49.55179 | 45.00590 | 24256 ft | 425 kts | 36° |
| 2026-05-07 17:25 | 49.57570 | 45.03276 | 24612 ft | 427 kts | 36° |
| 2026-05-07 17:26 | 49.59979 | 45.05985 | 24958 ft | 430 kts | 36° |
| 2026-05-07 17:26 | 49.62401 | 45.08710 | 25297 ft | 432 kts | 36° |
| 2026-05-07 17:26 | 49.64832 | 45.11449 | 25632 ft | 435 kts | 36° |
| 2026-05-07 17:26 | 49.67358 | 45.14023 | 25960 ft | 437 kts | 26° |
| 2026-05-07 17:27 | 49.70240 | 45.15530 | 26273 ft | 439 kts | 15° |
| 2026-05-07 17:27 | 49.73202 | 45.16712 | 26608 ft | 441 kts | 15° |
| 2026-05-07 17:27 | 49.76173 | 45.17942 | 26885 ft | 444 kts | 15° |
| 2026-05-07 17:27 | 49.79159 | 45.19218 | 27162 ft | 446 kts | 16° |
| 2026-05-07 17:28 | 49.82160 | 45.20525 | 27440 ft | 449 kts | 16° |
| 2026-05-07 17:28 | 49.85171 | 45.21851 | 27717 ft | 451 kts | 16° |
| 2026-05-07 17:28 | 49.88196 | 45.23187 | 28005 ft | 453 kts | 16° |
| 2026-05-07 17:28 | 49.91234 | 45.24529 | 28287 ft | 455 kts | 16° |
| 2026-05-07 17:29 | 49.94282 | 45.25874 | 28636 ft | 455 kts | 16° |
| 2026-05-07 17:29 | 49.97317 | 45.27234 | 29071 ft | 453 kts | 18° |
| 2026-05-07 17:29 | 50.00177 | 45.29259 | 29469 ft | 452 kts | 32° |
| 2026-05-07 17:29 | 50.02659 | 45.32250 | 29897 ft | 452 kts | 43° |
| 2026-05-07 17:30 | 50.04709 | 45.35944 | 30206 ft | 453 kts | 55° |
| 2026-05-07 17:30 | 50.06395 | 45.40082 | 30524 ft | 452 kts | 57° |
| 2026-05-07 17:30 | 50.08044 | 45.44255 | 30828 ft | 452 kts | 57° |
| 2026-05-07 17:30 | 50.09689 | 45.48432 | 31138 ft | 452 kts | 57° |
| 2026-05-07 17:31 | 50.11337 | 45.52592 | 31452 ft | 452 kts | 57° |
| 2026-05-07 17:31 | 50.12995 | 45.56752 | 31753 ft | 450 kts | 57° |
| 2026-05-07 17:31 | 50.14652 | 45.60885 | 31986 ft | 450 kts | 57° |
| 2026-05-07 17:31 | 50.16317 | 45.65027 | 32195 ft | 451 kts | 57° |
| 2026-05-07 17:32 | 50.17983 | 45.69170 | 32438 ft | 451 kts | 57° |
| 2026-05-07 17:32 | 50.19646 | 45.73308 | 32706 ft | 450 kts | 57° |
| 2026-05-07 17:32 | 50.21304 | 45.77439 | 32940 ft | 449 kts | 57° |
| 2026-05-07 17:32 | 50.22402 | 45.80181 | 33080 ft | 450 kts | 57° |
| 2026-05-07 17:33 | 50.24620 | 45.85726 | 33408 ft | 449 kts | 57° |
| 2026-05-07 17:33 | 50.26271 | 45.89861 | 33659 ft | 449 kts | 57° |
| 2026-05-07 17:33 | 50.27921 | 45.94003 | 33896 ft | 448 kts | 57° |
| 2026-05-07 17:33 | 50.29569 | 45.98146 | 34095 ft | 449 kts | 57° |
| 2026-05-07 17:34 | 50.31216 | 46.02292 | 34263 ft | 449 kts | 57° |
| 2026-05-07 17:34 | 50.32866 | 46.06454 | 34421 ft | 450 kts | 57° |
| 2026-05-07 17:34 | 50.34492 | 46.10560 | 34606 ft | 450 kts | 57° |
| 2026-05-07 17:34 | 50.36138 | 46.14724 | 34785 ft | 450 kts | 57° |
| 2026-05-07 17:35 | 50.37785 | 46.18897 | 34913 ft | 451 kts | 57° |
| 2026-05-07 17:35 | 50.39438 | 46.23093 | 34912 ft | 454 kts | 57° |
| 2026-05-07 17:35 | 50.42734 | 46.31480 | 34920 ft | 451 kts | 57° |
| 2026-05-07 17:36 | 50.46011 | 46.39844 | 34919 ft | 448 kts | 57° |
| 2026-05-07 17:36 | 50.49263 | 46.48172 | 34919 ft | 447 kts | 57° |
| 2026-05-07 17:37 | 50.52543 | 46.56594 | 34927 ft | 455 kts | 58° |
| 2026-05-07 17:37 | 50.55840 | 46.65177 | 34923 ft | 461 kts | 59° |
| 2026-05-07 17:38 | 50.58993 | 46.73977 | 34916 ft | 462 kts | 60° |
| 2026-05-07 17:38 | 50.62085 | 46.82783 | 34911 ft | 458 kts | 60° |
| 2026-05-07 17:39 | 50.65170 | 46.91539 | 34911 ft | 456 kts | 60° |
| 2026-05-07 17:39 | 50.68251 | 47.00263 | 34915 ft | 456 kts | 60° |
| 2026-05-07 17:40 | 50.71335 | 47.09009 | 34918 ft | 456 kts | 60° |
| 2026-05-07 17:40 | 50.74414 | 47.17767 | 34919 ft | 456 kts | 60° |
| 2026-05-07 17:41 | 50.77488 | 47.26546 | 34916 ft | 457 kts | 60° |
| 2026-05-07 17:41 | 50.80562 | 47.35355 | 34918 ft | 458 kts | 60° |
| 2026-05-07 17:42 | 50.83636 | 47.44197 | 34914 ft | 459 kts | 60° |
| 2026-05-07 17:42 | 50.86704 | 47.53053 | 34910 ft | 459 kts | 60° |
| 2026-05-07 17:43 | 50.89768 | 47.61925 | 34906 ft | 459 kts | 60° |
| 2026-05-07 17:43 | 50.92825 | 47.70813 | 34904 ft | 459 kts | 60° |
| 2026-05-07 17:44 | 50.95856 | 47.79652 | 34903 ft | 459 kts | 60° |
| 2026-05-07 17:44 | 50.98899 | 47.88558 | 34904 ft | 459 kts | 61° |
| 2026-05-07 17:45 | 51.01936 | 47.97479 | 34907 ft | 459 kts | 61° |
| 2026-05-07 17:45 | 51.04964 | 48.06407 | 34904 ft | 459 kts | 61° |
| 2026-05-07 17:46 | 51.07987 | 48.15350 | 34901 ft | 459 kts | 61° |
| 2026-05-07 17:46 | 51.11003 | 48.24301 | 34904 ft | 459 kts | 61° |
| 2026-05-07 17:47 | 51.14011 | 48.33265 | 34904 ft | 459 kts | 61° |
| 2026-05-07 17:47 | 51.17013 | 48.42243 | 34904 ft | 459 kts | 61° |
| 2026-05-07 17:48 | 51.20010 | 48.51236 | 34896 ft | 459 kts | 61° |
| 2026-05-07 17:48 | 51.22998 | 48.60236 | 34916 ft | 459 kts | 61° |
| 2026-05-07 17:49 | 51.25475 | 48.67719 | 34908 ft | 459 kts | 61° |
| 2026-05-07 17:49 | 51.28451 | 48.76743 | 34894 ft | 459 kts | 61° |
| 2026-05-07 17:50 | 51.31420 | 48.85777 | 34905 ft | 459 kts | 62° |
| 2026-05-07 17:50 | 51.34382 | 48.94823 | 34900 ft | 459 kts | 62° |
| 2026-05-07 17:51 | 51.37338 | 49.03884 | 34898 ft | 459 kts | 62° |
| 2026-05-07 17:51 | 51.40287 | 49.12956 | 34899 ft | 459 kts | 62° |
| 2026-05-07 17:52 | 51.43229 | 49.22041 | 34903 ft | 459 kts | 62° |
| 2026-05-07 17:52 | 51.46166 | 49.31141 | 34897 ft | 460 kts | 62° |
| 2026-05-07 17:53 | 51.49096 | 49.40258 | 34891 ft | 460 kts | 62° |
| 2026-05-07 17:53 | 51.52021 | 49.49389 | 34892 ft | 460 kts | 62° |
| 2026-05-07 17:54 | 51.54941 | 49.58536 | 34897 ft | 460 kts | 62° |
| 2026-05-07 17:54 | 51.57856 | 49.67696 | 34888 ft | 460 kts | 63° |
| 2026-05-07 17:55 | 51.60768 | 49.76870 | 34882 ft | 461 kts | 63° |
| 2026-05-07 17:55 | 51.63677 | 49.86067 | 34882 ft | 461 kts | 63° |
| 2026-05-07 17:56 | 51.66556 | 49.95205 | 34858 ft | 447 kts | 63° |
| 2026-05-07 17:56 | 51.67931 | 49.99597 | 34857 ft | 431 kts | 63° |
| 2026-05-07 17:56 | 51.69256 | 50.03847 | 34700 ft | 421 kts | 63° |
| 2026-05-07 17:57 | 51.70578 | 50.08094 | 33891 ft | 428 kts | 63° |
| 2026-05-07 17:57 | 51.71468 | 50.10959 | 33183 ft | 434 kts | 63° |
| 2026-05-07 17:57 | 51.73296 | 50.16853 | 31881 ft | 445 kts | 63° |
| 2026-05-07 17:57 | 51.74691 | 50.21358 | 30957 ft | 452 kts | 63° |
| 2026-05-07 17:58 | 51.76098 | 50.25909 | 30044 ft | 455 kts | 63° |
| 2026-05-07 17:58 | 51.77516 | 50.30505 | 29034 ft | 459 kts | 63° |
| 2026-05-07 17:58 | 51.78939 | 50.35123 | 28023 ft | 459 kts | 63° |
| 2026-05-07 17:58 | 51.80342 | 50.39689 | 27062 ft | 458 kts | 63° |
| 2026-05-07 17:59 | 51.81775 | 50.44359 | 26106 ft | 457 kts | 63° |
| 2026-05-07 17:59 | 51.83177 | 50.48939 | 25198 ft | 454 kts | 63° |
| 2026-05-07 17:59 | 51.84557 | 50.53453 | 24320 ft | 452 kts | 63° |
| 2026-05-07 17:59 | 51.85943 | 50.57995 | 23465 ft | 449 kts | 63° |
| 2026-05-07 18:00 | 51.87073 | 50.61781 | 23473 ft | 384 kts | 63° |
| 2026-05-07 18:00 | 51.88239 | 50.65749 | 20253 ft | 421 kts | 63° |
| 2026-05-07 18:00 | 51.89525 | 50.69969 | 19457 ft | 406 kts | 62° |
| 2026-05-07 18:00 | 51.90749 | 50.73990 | 18488 ft | 393 kts | 62° |
| 2026-05-07 18:01 | 51.91800 | 50.77504 | 17422 ft | 388 kts | 65° |
| 2026-05-07 18:01 | 51.92366 | 50.81079 | 16707 ft | 384 kts | 84° |
| 2026-05-07 18:01 | 51.91962 | 50.85352 | 15974 ft | 390 kts | 107° |
| 2026-05-07 18:01 | 51.90492 | 50.89091 | 15185 ft | 400 kts | 130° |
| 2026-05-07 18:02 | 51.85347 | 50.92672 | 13362 ft | 424 kts | 176° |
| 2026-05-07 18:02 | 51.82399 | 50.92550 | 12547 ft | 420 kts | 174° |
| 2026-05-07 18:02 | 51.79595 | 50.93279 | 12291 ft | 398 kts | 162° |
| 2026-05-07 18:03 | 51.76971 | 50.94445 | 12150 ft | 389 kts | 160° |
| 2026-05-07 18:03 | 51.74377 | 50.95616 | 12020 ft | 383 kts | 161° |
| 2026-05-07 18:03 | 51.71853 | 50.96729 | 11893 ft | 370 kts | 161° |
| 2026-05-07 18:03 | 51.69403 | 50.97790 | 11488 ft | 364 kts | 160° |
| 2026-05-07 18:04 | 51.66930 | 50.98873 | 10628 ft | 372 kts | 159° |
| 2026-05-07 18:04 | 51.64392 | 51.00142 | 9797 ft | 387 kts | 158° |
| 2026-05-07 18:04 | 51.61824 | 51.01518 | 8885 ft | 390 kts | 157° |
| 2026-05-07 18:04 | 51.59252 | 51.02920 | 7996 ft | 391 kts | 158° |
| 2026-05-07 18:05 | 51.56672 | 51.04323 | 7130 ft | 391 kts | 158° |
| 2026-05-07 18:05 | 51.54112 | 51.05704 | 6680 ft | 381 kts | 159° |
| 2026-05-07 18:05 | 51.51680 | 51.07002 | 6449 ft | 366 kts | 159° |
| 2026-05-07 18:05 | 51.49304 | 51.08264 | 6202 ft | 354 kts | 159° |
| 2026-05-07 18:06 | 51.47005 | 51.09484 | 5927 ft | 343 kts | 159° |
| 2026-05-07 18:06 | 51.44769 | 51.10668 | 5693 ft | 333 kts | 158° |
| 2026-05-07 18:06 | 51.42595 | 51.11817 | 5437 ft | 325 kts | 158° |
| 2026-05-07 18:06 | 51.40475 | 51.12938 | 5179 ft | 318 kts | 158° |
| 2026-05-07 18:07 | 51.38394 | 51.14037 | 4932 ft | 311 kts | 158° |
| 2026-05-07 18:07 | 51.36359 | 51.15111 | 4687 ft | 305 kts | 158° |
| 2026-05-07 18:07 | 51.34357 | 51.16168 | 4431 ft | 300 kts | 159° |
| 2026-05-07 18:07 | 51.32388 | 51.17205 | 4181 ft | 295 kts | 159° |
| 2026-05-07 18:08 | 51.30451 | 51.18225 | 3927 ft | 291 kts | 159° |
| 2026-05-07 18:08 | 51.28540 | 51.19230 | 3681 ft | 287 kts | 159° |
| 2026-05-07 18:08 | 51.26654 | 51.20221 | 3429 ft | 283 kts | 160° |
| 2026-05-07 18:08 | 51.24793 | 51.21198 | 3185 ft | 280 kts | 160° |
| 2026-05-07 18:09 | 51.22954 | 51.22162 | 2937 ft | 277 kts | 160° |
| 2026-05-07 18:09 | 51.21130 | 51.23118 | 2692 ft | 274 kts | 160° |
| 2026-05-07 18:09 | 51.19558 | 51.23941 | 2482 ft | 272 kts | 160° |
| 2026-05-07 18:09 | 51.17768 | 51.24877 | 2236 ft | 269 kts | 160° |
| 2026-05-07 18:10 | 51.16027 | 51.25786 | 2227 ft | 258 kts | 160° |
| 2026-05-07 18:10 | 51.14334 | 51.26670 | 2218 ft | 254 kts | 160° |
| 2026-05-07 18:10 | 51.12680 | 51.27533 | 2206 ft | 247 kts | 160° |
| 2026-05-07 18:10 | 51.11071 | 51.28371 | 2193 ft | 239 kts | 160° |
| 2026-05-07 18:11 | 51.09521 | 51.29178 | 2175 ft | 230 kts | 160° |
| 2026-05-07 18:11 | 51.08051 | 51.29942 | 2155 ft | 222 kts | 160° |
| 2026-05-07 18:11 | 51.06614 | 51.30772 | 2140 ft | 217 kts | 148° |
| 2026-05-07 18:11 | 51.05664 | 51.32464 | 2128 ft | 200 kts | 104° |
| 2026-05-07 18:12 | 51.05756 | 51.34522 | 2143 ft | 187 kts | 59° |
| 2026-05-07 18:12 | 51.06453 | 51.36173 | 2173 ft | 175 kts | 56° |
| 2026-05-07 18:12 | 51.07105 | 51.37739 | 2190 ft | 167 kts | 53° |
| 2026-05-07 18:12 | 51.07790 | 51.39212 | 2182 ft | 166 kts | 51° |
| 2026-05-07 18:13 | 51.08502 | 51.40682 | 2019 ft | 167 kts | 51° |
| 2026-05-07 18:13 | 51.09202 | 51.42116 | 1809 ft | 162 kts | 51° |
| 2026-05-07 18:13 | 51.09883 | 51.43511 | 1599 ft | 157 kts | 51° |
| 2026-05-07 18:13 | 51.10535 | 51.44846 | 1391 ft | 148 kts | 51° |
| 2026-05-07 18:14 | 51.11151 | 51.46106 | 1226 ft | 145 kts | 51° |
| 2026-05-07 18:14 | 51.11774 | 51.47379 | 1024 ft | 146 kts | 51° |
| 2026-05-07 18:14 | 51.12403 | 51.48665 | 827 ft | 148 kts | 51° |
| 2026-05-07 18:14 | 51.13035 | 51.49994 | 648 ft | 154 kts | 52° |
| 2026-05-07 18:15 | 51.13691 | 51.51352 | 442 ft | 152 kts | 50° |
| 2026-05-07 18:15 | 51.14352 | 51.52661 | 209 ft | 147 kts | 50° |
| 2026-05-07 18:15 | 51.14939 | 51.53863 | 120 ft | 120 kts | 52° |
| 2026-05-07 18:15 | 51.15349 | 51.54686 | 121 ft | 59 kts | 52° |
| 2026-05-07 18:16 | 51.15465 | 51.54901 | 119 ft | 6 kts | 79° |
| 2026-05-07 18:16 | 51.15474 | 51.54972 | 122 ft | 7 kts | 40° |
| 2026-05-07 18:16 | 51.15490 | 51.54977 | 123 ft | 1 kts | 345° |
| 2026-05-07 18:16 | 51.15492 | 51.54959 | 123 ft | 5 kts | 267° |
| 2026-05-07 18:17 | 51.15444 | 51.54863 | 123 ft | 19 kts | 229° |
| 2026-05-07 18:17 | 51.15331 | 51.54641 | 121 ft | 33 kts | 232° |
| 2026-05-07 18:17 | 51.15167 | 51.54324 | 123 ft | 39 kts | 231° |
| 2026-05-07 18:17 | 51.15140 | 51.54106 | 121 ft | 19 kts | 313° |
| 2026-05-07 18:18 | 51.15198 | 51.54037 | 122 ft | 0 kts | 323° |
| 2026-05-07 18:18 | 51.15199 | 51.54035 | 122 ft | 3 kts | 323° |
| 2026-05-07 18:18 | 51.15219 | 51.54011 | 123 ft | 1 kts | 322° |
| 2026-05-07 18:19 | 51.15229 | 51.53999 | 122 ft | 3 kts | 320° |
| 2026-05-07 18:19 | 51.15251 | 51.53970 | 125 ft | 5 kts | 321° |
| 2026-05-07 18:19 | 51.15281 | 51.53955 | 123 ft | 5 kts | 6° |
| 2026-05-07 18:19 | 51.15304 | 51.53984 | 125 ft | 0 kts | 46° |
| 2026-05-07 18:20 | 51.15308 | 51.53991 | 125 ft | 2 kts | 49° |
| 2026-05-07 18:20 | 51.15312 | 51.53999 | 125 ft | 1 kts | 50° |
| 2026-05-07 18:20 | 51.15314 | 51.54002 | 125 ft | 0 kts | 51° |